createdAt,value
2016-06-19T00:00:25.589Z,0
2016-06-19T00:01:24.984Z,0
2016-06-19T00:02:25.565Z,0
2016-06-19T00:03:25.585Z,0
2016-06-19T00:04:25.009Z,0
2016-06-19T00:05:25.607Z,0
2016-06-19T00:06:25.579Z,0
2016-06-19T00:07:25.599Z,0
2016-06-19T00:08:25.602Z,0
2016-06-19T00:09:25.589Z,0
2016-06-19T00:10:25.610Z,0
2016-06-19T00:11:25.612Z,0
2016-06-19T00:12:24.975Z,0
2016-06-19T00:13:25.604Z,0
2016-06-19T00:14:25.607Z,0
2016-06-19T00:15:25.595Z,0
2016-06-19T00:16:25.598Z,0
2016-06-19T00:17:25.601Z,0
2016-06-19T00:18:25.605Z,0
2016-06-19T00:19:25.608Z,0
2016-06-19T00:20:25.612Z,0
2016-06-19T00:21:25.632Z,0
2016-06-19T00:22:25.604Z,0
2016-06-19T00:23:25.622Z,0
2016-06-19T00:24:25.625Z,0
2016-06-19T00:25:25.614Z,0
2016-06-19T00:26:24.993Z,0
2016-06-19T00:27:25.621Z,0
2016-06-19T00:28:25.015Z,0
2016-06-19T00:29:25.017Z,0
2016-06-19T00:30:25.615Z,0
2016-06-19T00:31:25.025Z,0
2016-06-19T00:32:25.653Z,0
2016-06-19T00:33:25.610Z,0
2016-06-19T00:34:25.676Z,0
2016-06-19T00:35:25.633Z,0
2016-06-19T00:36:25.620Z,0
2016-06-19T00:37:25.015Z,0
2016-06-19T00:38:25.034Z,0
2016-06-19T00:39:25.630Z,0
2016-06-19T00:40:25.009Z,0
2016-06-19T00:41:25.637Z,0
2016-06-19T00:42:25.641Z,0
2016-06-19T00:43:25.114Z,0
2016-06-19T00:44:25.039Z,0
2016-06-19T00:45:25.684Z,0
2016-06-19T00:46:25.640Z,0
2016-06-19T00:47:25.658Z,0
2016-06-19T00:48:25.646Z,0
2016-06-19T00:49:25.650Z,0
2016-06-19T00:50:25.044Z,0
2016-06-19T00:51:25.641Z,0
2016-06-19T00:52:24.442Z,0
2016-06-19T00:53:25.648Z,0
2016-06-19T00:54:25.667Z,0
2016-06-19T00:55:25.060Z,0
2016-06-19T00:56:25.689Z,0
2016-06-19T00:57:25.662Z,0
2016-06-19T00:58:25.071Z,0
2016-06-19T00:59:25.669Z,0
2016-06-19T01:00:25.672Z,0
2016-06-19T01:01:25.676Z,0
2016-06-19T01:02:25.679Z,0
2016-06-19T01:03:25.683Z,0
2016-06-19T01:04:25.686Z,0
2016-06-19T01:05:25.674Z,0
2016-06-19T01:06:25.662Z,0
2016-06-19T01:07:25.696Z,0
2016-06-19T01:08:25.715Z,0
2016-06-19T01:09:25.719Z,0
2016-06-19T01:10:25.675Z,0
2016-06-19T01:11:25.695Z,0
2016-06-19T01:12:25.699Z,0
2016-06-19T01:13:25.686Z,0
2016-06-19T01:14:25.690Z,0
2016-06-19T01:15:25.693Z,0
2016-06-19T01:16:25.681Z,0
2016-06-19T01:17:25.700Z,0
2016-06-19T01:18:25.251Z,0
2016-06-19T01:19:25.707Z,0
2016-06-19T01:20:25.694Z,0
2016-06-19T01:21:25.698Z,0
2016-06-19T01:22:25.701Z,0
2016-06-19T01:23:25.689Z,0
2016-06-19T01:24:25.693Z,0
2016-06-19T01:25:25.697Z,0
2016-06-19T01:26:25.731Z,0
2016-06-19T01:27:25.688Z,0
2016-06-19T01:28:25.097Z,0
2016-06-19T01:29:25.725Z,0
2016-06-19T01:30:25.698Z,0
2016-06-19T01:31:25.702Z,0
2016-06-19T01:32:25.877Z,0
2016-06-19T01:33:25.724Z,0
2016-06-19T01:34:25.103Z,0
2016-06-19T01:35:25.715Z,0
2016-06-19T01:36:25.719Z,0
2016-06-19T01:37:25.722Z,0
2016-06-19T01:38:25.709Z,0
2016-06-19T01:39:25.120Z,0
2016-06-19T01:40:25.733Z,0
2016-06-19T01:41:25.720Z,0
2016-06-19T01:42:25.739Z,0
2016-06-19T01:43:25.727Z,0
2016-06-19T01:44:25.730Z,0
2016-06-19T01:45:25.734Z,0
2016-06-19T01:46:25.722Z,0
2016-06-19T01:47:25.725Z,0
2016-06-19T01:48:25.729Z,0
2016-06-19T01:49:25.139Z,0
2016-06-19T01:50:25.736Z,0
2016-06-19T01:51:25.739Z,0
2016-06-19T01:52:25.133Z,0
2016-06-19T01:53:25.137Z,0
2016-06-19T01:54:25.750Z,0
2016-06-19T01:55:25.132Z,0
2016-06-19T01:56:25.749Z,0
2016-06-19T01:57:25.772Z,0
2016-06-19T01:58:25.763Z,0
2016-06-19T01:59:25.160Z,0
2016-06-19T02:00:25.165Z,0
2016-06-19T02:01:25.154Z,0
2016-06-19T02:02:25.768Z,0
2016-06-19T02:03:25.180Z,0
2016-06-19T02:04:24.574Z,0
2016-06-19T02:05:25.157Z,0
2016-06-19T02:06:25.786Z,0
2016-06-19T02:07:25.805Z,0
2016-06-19T02:08:25.809Z,0
2016-06-19T02:09:25.798Z,0
2016-06-19T02:10:25.785Z,0
2016-06-19T02:11:25.820Z,0
2016-06-19T02:12:25.183Z,0
2016-06-19T02:13:25.795Z,0
2016-06-19T02:14:25.815Z,0
2016-06-19T02:15:25.178Z,0
2016-06-19T02:16:25.821Z,0
2016-06-19T02:17:25.793Z,0
2016-06-19T02:18:25.797Z,0
2016-06-19T02:19:25.817Z,0
2016-06-19T02:20:25.819Z,0
2016-06-19T02:21:25.807Z,0
2016-06-19T02:22:25.811Z,0
2016-06-19T02:23:25.799Z,0
2016-06-19T02:24:26.020Z,0
2016-06-19T02:25:25.806Z,0
2016-06-19T02:26:25.810Z,0
2016-06-19T02:27:25.813Z,0
2016-06-19T02:28:25.816Z,0
2016-06-19T02:29:25.835Z,0
2016-06-19T02:30:25.823Z,0
2016-06-19T02:31:25.827Z,0
2016-06-19T02:32:25.814Z,0
2016-06-19T02:33:25.802Z,0
2016-06-19T02:34:25.837Z,0
2016-06-19T02:35:25.825Z,0
2016-06-19T02:36:25.812Z,0
2016-06-19T02:37:25.831Z,0
2016-06-19T02:38:25.835Z,0
2016-06-19T02:39:25.213Z,0
2016-06-19T02:40:25.825Z,0
2016-06-19T02:41:25.829Z,0
2016-06-19T02:42:25.833Z,0
2016-06-19T02:43:25.836Z,0
2016-06-19T02:44:25.825Z,0
2016-06-19T02:45:25.843Z,0
2016-06-19T02:46:25.862Z,0
2016-06-19T02:47:25.835Z,0
2016-06-19T02:48:25.839Z,0
2016-06-19T02:49:25.841Z,0
2016-06-19T02:50:25.845Z,0
2016-06-19T02:51:25.833Z,0
2016-06-19T02:52:25.243Z,0
2016-06-19T02:53:25.839Z,0
2016-06-19T02:54:25.859Z,0
2016-06-19T02:55:25.863Z,0
2016-06-19T02:56:25.850Z,0
2016-06-19T02:57:25.853Z,0
2016-06-19T02:58:25.888Z,0
2016-06-19T02:59:25.846Z,0
2016-06-19T03:00:25.880Z,0
2016-06-19T03:01:25.852Z,0
2016-06-19T03:02:25.840Z,0
2016-06-19T03:03:25.859Z,0
2016-06-19T03:04:25.894Z,0
2016-06-19T03:05:25.881Z,0
2016-06-19T03:06:25.885Z,0
2016-06-19T03:07:25.873Z,0
2016-06-19T03:08:25.861Z,0
2016-06-19T03:09:25.255Z,0
2016-06-19T03:10:25.289Z,0
2016-06-19T03:11:25.871Z,0
2016-06-19T03:12:25.249Z,0
2016-06-19T03:13:25.878Z,0
2016-06-19T03:14:25.882Z,0
2016-06-19T03:15:25.869Z,0
2016-06-19T03:16:25.263Z,0
2016-06-19T03:17:25.892Z,0
2016-06-19T03:18:25.974Z,0
2016-06-19T03:19:25.273Z,0
2016-06-19T03:20:25.886Z,0
2016-06-19T03:21:25.875Z,0
2016-06-19T03:22:25.268Z,0
2016-06-19T03:23:25.881Z,0
2016-06-19T03:24:25.916Z,0
2016-06-19T03:25:25.889Z,0
2016-06-19T03:26:25.298Z,0
2016-06-19T03:27:25.910Z,0
2016-06-19T03:28:25.899Z,0
2016-06-19T03:29:25.870Z,0
2016-06-19T03:30:25.906Z,0
2016-06-19T03:31:25.893Z,0
2016-06-19T03:32:25.880Z,0
2016-06-19T03:33:25.900Z,0
2016-06-19T03:34:25.904Z,0
2016-06-19T03:35:25.891Z,0
2016-06-19T03:36:25.894Z,0
2016-06-19T03:37:25.914Z,0
2016-06-19T03:38:25.917Z,0
2016-06-19T03:39:25.905Z,0
2016-06-19T03:40:25.315Z,0
2016-06-19T03:41:25.928Z,0
2016-06-19T03:42:25.900Z,0
2016-06-19T03:43:25.919Z,0
2016-06-19T03:44:25.907Z,0
2016-06-19T03:45:25.925Z,0
2016-06-19T03:46:25.914Z,0
2016-06-19T03:47:25.918Z,0
2016-06-19T03:48:25.920Z,5
2016-06-19T03:49:25.909Z,5
2016-06-19T03:50:25.928Z,5
2016-06-19T03:51:25.321Z,5
2016-06-19T03:52:25.903Z,5
2016-06-19T03:53:25.923Z,5
2016-06-19T03:54:25.942Z,5
2016-06-19T03:55:25.320Z,5
2016-06-19T03:56:25.918Z,5
2016-06-19T03:57:25.327Z,5
2016-06-19T03:58:25.940Z,5
2016-06-19T03:59:25.928Z,10
2016-06-19T04:00:25.932Z,10
2016-06-19T04:01:25.935Z,10
2016-06-19T04:02:25.938Z,10
2016-06-19T04:03:25.942Z,10
2016-06-19T04:04:25.351Z,10
2016-06-19T04:05:25.324Z,10
2016-06-19T04:06:25.952Z,10
2016-06-19T04:07:25.940Z,10
2016-06-19T04:08:25.959Z,10
2016-06-19T04:09:25.947Z,15
2016-06-19T04:10:25.981Z,15
2016-06-19T04:11:25.954Z,15
2016-06-19T04:12:25.943Z,15
2016-06-19T04:13:25.949Z,15
2016-06-19T04:14:25.969Z,20
2016-06-19T04:15:25.958Z,20
2016-06-19T04:16:25.963Z,20
2016-06-19T04:17:25.967Z,20
2016-06-19T04:18:25.972Z,25
2016-06-19T04:19:25.960Z,25
2016-06-19T04:20:25.965Z,25
2016-06-19T04:21:25.969Z,25
2016-06-19T04:22:25.362Z,25
2016-06-19T04:23:25.975Z,25
2016-06-19T04:24:25.979Z,25
2016-06-19T04:25:25.983Z,25
2016-06-19T04:26:25.376Z,25
2016-06-19T04:27:25.989Z,25
2016-06-19T04:28:25.993Z,30
2016-06-19T04:29:25.371Z,30
2016-06-19T04:30:25.390Z,30
2016-06-19T04:31:25.987Z,30
2016-06-19T04:32:25.974Z,25
2016-06-19T04:33:25.978Z,25
2016-06-19T04:34:25.998Z,25
2016-06-19T04:35:25.985Z,25
2016-06-19T04:36:25.988Z,25
2016-06-19T04:37:26.008Z,25
2016-06-19T04:38:25.996Z,25
2016-06-19T04:39:25.373Z,25
2016-06-19T04:40:26.002Z,25
2016-06-19T04:41:26.006Z,25
2016-06-19T04:42:25.994Z,25
2016-06-19T04:43:25.998Z,25
2016-06-19T04:44:26.002Z,30
2016-06-19T04:45:25.988Z,30
2016-06-19T04:46:26.008Z,30
2016-06-19T04:47:26.012Z,30
2016-06-19T04:48:26.015Z,30
2016-06-19T04:49:26.002Z,30
2016-06-19T04:50:26.006Z,30
2016-06-19T04:51:25.400Z,30
2016-06-19T04:52:26.013Z,35
2016-06-19T04:53:26.032Z,35
2016-06-19T04:54:26.019Z,30
2016-06-19T04:55:26.008Z,30
2016-06-19T04:56:26.027Z,30
2016-06-19T04:57:26.061Z,30
2016-06-19T04:58:26.018Z,35
2016-06-19T04:59:26.006Z,35
2016-06-19T05:00:26.025Z,35
2016-06-19T05:01:25.419Z,35
2016-06-19T05:02:26.017Z,35
2016-06-19T05:03:26.020Z,35
2016-06-19T05:04:26.039Z,35
2016-06-19T05:05:26.027Z,35
2016-06-19T05:06:26.014Z,35
2016-06-19T05:07:26.034Z,35
2016-06-19T05:08:25.474Z,40
2016-06-19T05:09:25.415Z,40
2016-06-19T05:10:26.044Z,40
2016-06-19T05:11:26.079Z,40
2016-06-19T05:12:26.051Z,40
2016-06-19T05:13:26.038Z,40
2016-06-19T05:14:25.449Z,40
2016-06-19T05:15:26.045Z,40
2016-06-19T05:16:26.034Z,40
2016-06-19T05:17:26.052Z,40
2016-06-19T05:18:25.603Z,40
2016-06-19T05:19:26.044Z,45
2016-06-19T05:20:25.437Z,45
2016-06-19T05:21:26.066Z,45
2016-06-19T05:22:26.070Z,45
2016-06-19T05:23:25.448Z,50
2016-06-19T05:24:24.859Z,50
2016-06-19T05:25:25.440Z,50
2016-06-19T05:26:26.052Z,50
2016-06-19T05:27:24.853Z,50
2016-06-19T05:28:26.075Z,50
2016-06-19T05:29:26.063Z,50
2016-06-19T05:30:26.066Z,50
2016-06-19T05:31:25.460Z,50
2016-06-19T05:32:26.058Z,50
2016-06-19T05:33:26.060Z,50
2016-06-19T05:34:26.111Z,50
2016-06-19T05:35:26.100Z,50
2016-06-19T05:36:26.071Z,55
2016-06-19T05:37:26.091Z,55
2016-06-19T05:38:26.077Z,55
2016-06-19T05:39:26.097Z,55
2016-06-19T05:40:26.070Z,55
2016-06-19T05:41:26.074Z,50
2016-06-19T05:42:25.482Z,50
2016-06-19T05:43:26.081Z,50
2016-06-19T05:44:25.489Z,50
2016-06-19T05:45:25.493Z,50
2016-06-19T05:46:26.090Z,50
2016-06-19T05:47:26.094Z,50
2016-06-19T05:48:26.113Z,50
2016-06-19T05:49:26.100Z,45
2016-06-19T05:50:26.104Z,40
2016-06-19T05:51:25.498Z,40
2016-06-19T05:52:24.909Z,35
2016-06-19T05:53:26.098Z,40
2016-06-19T05:54:25.509Z,40
2016-06-19T05:55:26.121Z,40
2016-06-19T05:56:26.125Z,45
2016-06-19T05:57:26.113Z,45
2016-06-19T05:58:25.507Z,40
2016-06-19T05:59:25.526Z,40
2016-06-19T06:00:25.497Z,40
2016-06-19T06:01:26.126Z,50
2016-06-19T06:02:24.896Z,55
2016-06-19T06:03:25.508Z,60
2016-06-19T06:04:26.136Z,65
2016-06-19T06:05:25.531Z,65
2016-06-19T06:06:26.128Z,70
2016-06-19T06:07:25.522Z,75
2016-06-19T06:08:26.136Z,70
2016-06-19T06:09:25.529Z,70
2016-06-19T06:10:26.142Z,70
2016-06-19T06:11:26.192Z,65
2016-06-19T06:12:26.134Z,60
2016-06-19T06:13:26.199Z,60
2016-06-19T06:14:26.157Z,55
2016-06-19T06:15:26.144Z,50
2016-06-19T06:16:25.538Z,45
2016-06-19T06:17:26.151Z,40
2016-06-19T06:18:26.170Z,40
2016-06-19T06:19:26.141Z,40
2016-06-19T06:20:26.161Z,40
2016-06-19T06:21:26.164Z,45
2016-06-19T06:22:26.137Z,50
2016-06-19T06:23:26.140Z,55
2016-06-19T06:24:26.175Z,55
2016-06-19T06:25:26.163Z,55
2016-06-19T06:26:26.165Z,60
2016-06-19T06:27:26.185Z,65
2016-06-19T06:28:26.179Z,75
2016-06-19T06:29:26.173Z,85
2016-06-19T06:30:26.183Z,90
2016-06-19T06:31:26.192Z,95
2016-06-19T06:32:26.215Z,100
2016-06-19T06:33:25.596Z,100
2016-06-19T06:34:26.212Z,100
2016-06-19T06:35:25.608Z,100
2016-06-19T06:36:26.208Z,100
2016-06-19T06:37:26.229Z,105
2016-06-19T06:38:26.233Z,105
2016-06-19T06:39:25.628Z,110
2016-06-19T06:40:26.226Z,110
2016-06-19T06:41:26.230Z,115
2016-06-19T06:42:26.251Z,120
2016-06-19T06:43:26.221Z,125
2016-06-19T06:44:26.241Z,130
2016-06-19T06:45:26.244Z,135
2016-06-19T06:46:26.233Z,145
2016-06-19T06:47:26.236Z,155
2016-06-19T06:48:26.271Z,160
2016-06-19T06:49:26.275Z,175
2016-06-19T06:50:26.246Z,190
2016-06-19T06:51:25.640Z,205
2016-06-19T06:52:26.269Z,220
2016-06-19T06:53:26.256Z,245
2016-06-19T06:54:26.260Z,285
2016-06-19T06:55:26.279Z,400
2016-06-19T06:56:26.267Z,480
2016-06-19T06:57:26.255Z,450
2016-06-19T06:58:26.274Z,455
2016-06-19T06:59:25.668Z,340
2016-06-19T07:00:26.266Z,285
2016-06-19T07:01:26.284Z,280
2016-06-19T07:02:25.678Z,245
2016-06-19T07:03:26.276Z,215
2016-06-19T07:04:26.310Z,190
2016-06-19T07:05:26.314Z,170
2016-06-19T07:06:26.286Z,165
2016-06-19T07:07:26.290Z,170
2016-06-19T07:08:26.309Z,185
2016-06-19T07:09:26.327Z,170
2016-06-19T07:10:26.300Z,155
2016-06-19T07:11:26.318Z,140
2016-06-19T07:12:26.322Z,125
2016-06-19T07:13:26.311Z,120
2016-06-19T07:14:26.314Z,120
2016-06-19T07:15:26.332Z,110
2016-06-19T07:16:26.335Z,110
2016-06-19T07:17:26.324Z,120
2016-06-19T07:18:25.828Z,145
2016-06-19T07:19:25.721Z,155
2016-06-19T07:20:26.335Z,160
2016-06-19T07:21:26.339Z,165
2016-06-19T07:22:26.388Z,185
2016-06-19T07:23:26.360Z,185
2016-06-19T07:24:26.348Z,190
2016-06-19T07:25:26.352Z,205
2016-06-19T07:26:26.355Z,210
2016-06-19T07:27:26.343Z,205
2016-06-19T07:28:25.753Z,195
2016-06-19T07:29:26.365Z,200
2016-06-19T07:30:26.369Z,200
2016-06-19T07:31:25.170Z,195
2016-06-19T07:32:25.798Z,210
2016-06-19T07:33:26.411Z,205
2016-06-19T07:34:25.758Z,200
2016-06-19T07:35:26.402Z,170
2016-06-19T07:36:26.405Z,145
2016-06-19T07:37:26.408Z,150
2016-06-19T07:38:26.397Z,150
2016-06-19T07:39:26.400Z,160
2016-06-19T07:40:26.404Z,185
2016-06-19T07:41:26.391Z,205
2016-06-19T07:42:26.426Z,165
2016-06-19T07:43:26.445Z,155
2016-06-19T07:44:26.401Z,155
2016-06-19T07:45:26.421Z,155
2016-06-19T07:46:26.425Z,155
2016-06-19T07:47:25.834Z,155
2016-06-19T07:48:26.432Z,155
2016-06-19T07:49:26.435Z,160
2016-06-19T07:50:26.438Z,185
2016-06-19T07:51:26.425Z,200
2016-06-19T07:52:26.445Z,175
2016-06-19T07:53:26.449Z,160
2016-06-19T07:54:26.436Z,150
2016-06-19T07:55:26.456Z,140
2016-06-19T07:56:26.474Z,140
2016-06-19T07:57:26.463Z,135
2016-06-19T07:58:26.466Z,130
2016-06-19T07:59:26.470Z,130
2016-06-19T08:00:25.863Z,130
2016-06-19T08:01:26.460Z,130
2016-06-19T08:02:26.480Z,140
2016-06-19T08:03:26.498Z,150
2016-06-19T08:04:26.471Z,150
2016-06-19T08:05:25.865Z,155
2016-06-19T08:06:25.884Z,160
2016-06-19T08:07:26.513Z,165
2016-06-19T08:08:26.484Z,165
2016-06-19T08:09:26.489Z,170
2016-06-19T08:10:26.522Z,175
2016-06-19T08:11:26.511Z,185
2016-06-19T08:12:26.514Z,205
2016-06-19T08:13:26.533Z,225
2016-06-19T08:14:25.928Z,155
2016-06-19T08:15:25.900Z,115
2016-06-19T08:16:25.919Z,100
2016-06-19T08:17:26.703Z,85
2016-06-19T08:18:26.550Z,80
2016-06-19T08:19:26.539Z,75
2016-06-19T08:20:26.542Z,75
2016-06-19T08:21:25.327Z,75
2016-06-19T08:22:26.549Z,75
2016-06-19T08:23:25.943Z,75
2016-06-19T08:24:26.556Z,75
2016-06-19T08:25:26.543Z,70
2016-06-19T08:26:26.578Z,70
2016-06-19T08:27:26.581Z,70
2016-06-19T08:28:26.617Z,70
2016-06-19T08:29:26.573Z,70
2016-06-19T08:30:26.592Z,70
2016-06-19T08:31:25.970Z,65
2016-06-19T08:32:26.584Z,65
2016-06-19T08:33:26.587Z,65
2016-06-19T08:34:25.997Z,60
2016-06-19T08:35:26.594Z,60
2016-06-19T08:36:26.612Z,55
2016-06-19T08:37:25.991Z,55
2016-06-19T08:38:26.619Z,55
2016-06-19T08:39:25.998Z,50
2016-06-19T08:40:26.612Z,50
2016-06-19T08:41:26.615Z,50
2016-06-19T08:42:26.633Z,50
2016-06-19T08:43:26.636Z,55
2016-06-19T08:44:26.627Z,60
2016-06-19T08:45:26.634Z,65
2016-06-19T08:46:26.655Z,70
2016-06-19T08:47:26.646Z,75
2016-06-19T08:48:26.042Z,80
2016-06-19T08:49:26.657Z,85
2016-06-19T08:50:26.676Z,85
2016-06-19T08:51:26.681Z,90
2016-06-19T08:52:26.060Z,90
2016-06-19T08:53:26.675Z,95
2016-06-19T08:54:26.069Z,95
2016-06-19T08:55:26.698Z,95
2016-06-19T08:56:26.671Z,95
2016-06-19T08:57:26.674Z,95
2016-06-19T08:58:26.695Z,95
2016-06-19T08:59:26.698Z,100
2016-06-19T09:00:26.702Z,100
2016-06-19T09:01:26.705Z,100
2016-06-19T09:02:26.303Z,95
2016-06-19T09:03:26.821Z,90
2016-06-19T09:04:26.715Z,90
2016-06-19T09:05:26.703Z,90
2016-06-19T09:06:26.722Z,85
2016-06-19T09:07:26.116Z,90
2016-06-19T09:08:26.713Z,90
2016-06-19T09:09:26.733Z,90
2016-06-19T09:10:26.736Z,95
2016-06-19T09:11:26.723Z,100
2016-06-19T09:12:26.727Z,105
2016-06-19T09:13:26.746Z,110
2016-06-19T09:14:26.750Z,115
2016-06-19T09:15:26.128Z,125
2016-06-19T09:16:26.741Z,130
2016-06-19T09:17:26.745Z,130
2016-06-19T09:18:26.858Z,135
2016-06-19T09:19:26.143Z,135
2016-06-19T09:20:26.146Z,130
2016-06-19T09:21:26.759Z,125
2016-06-19T09:22:26.761Z,125
2016-06-19T09:23:26.750Z,120
2016-06-19T09:24:26.784Z,115
2016-06-19T09:25:26.772Z,115
2016-06-19T09:26:26.776Z,115
2016-06-19T09:27:26.795Z,110
2016-06-19T09:28:26.783Z,110
2016-06-19T09:29:26.160Z,110
2016-06-19T09:30:26.789Z,115
2016-06-19T09:31:25.590Z,115
2016-06-19T09:32:26.782Z,115
2016-06-19T09:33:26.800Z,110
2016-06-19T09:34:26.804Z,110
2016-06-19T09:35:26.791Z,110
2016-06-19T09:36:26.795Z,115
2016-06-19T09:37:26.844Z,115
2016-06-19T09:38:26.208Z,120
2016-06-19T09:39:26.806Z,125
2016-06-19T09:40:26.245Z,130
2016-06-19T09:41:26.843Z,135
2016-06-19T09:42:26.831Z,145
2016-06-19T09:43:26.834Z,155
2016-06-19T09:44:26.838Z,160
2016-06-19T09:45:26.826Z,170
2016-06-19T09:46:26.845Z,180
2016-06-19T09:47:26.239Z,190
2016-06-19T09:48:26.851Z,195
2016-06-19T09:49:26.855Z,205
2016-06-19T09:50:26.843Z,210
2016-06-19T09:51:26.862Z,220
2016-06-19T09:52:26.866Z,230
2016-06-19T09:53:26.244Z,240
2016-06-19T09:54:25.638Z,250
2016-06-19T09:55:27.064Z,255
2016-06-19T09:56:26.864Z,255
2016-06-19T09:57:26.883Z,255
2016-06-19T09:58:26.902Z,255
2016-06-19T09:59:26.859Z,255
2016-06-19T10:00:26.268Z,255
2016-06-19T10:01:26.287Z,255
2016-06-19T10:02:26.900Z,250
2016-06-19T10:03:26.889Z,250
2016-06-19T10:04:26.907Z,240
2016-06-19T10:05:25.691Z,235
2016-06-19T10:06:26.899Z,230
2016-06-19T10:07:26.308Z,225
2016-06-19T10:08:26.921Z,225
2016-06-19T10:09:26.330Z,220
2016-06-19T10:10:26.334Z,210
2016-06-19T10:11:26.306Z,205
2016-06-19T10:12:26.934Z,185
2016-06-19T10:13:26.923Z,170
2016-06-19T10:14:26.332Z,140
2016-06-19T10:15:26.945Z,130
2016-06-19T10:16:26.933Z,115
2016-06-19T10:17:26.937Z,95
2016-06-19T10:18:26.955Z,75
2016-06-19T10:19:26.959Z,55
2016-06-19T10:20:26.947Z,40
2016-06-19T10:21:26.966Z,30
2016-06-19T10:22:26.969Z,25
2016-06-19T10:23:26.958Z,25
2016-06-19T10:24:26.976Z,30
2016-06-19T10:25:26.979Z,35
2016-06-19T10:26:26.983Z,40
2016-06-19T10:27:26.361Z,45
2016-06-19T10:28:27.006Z,50
2016-06-19T10:29:26.993Z,55
2016-06-19T10:30:26.982Z,60
2016-06-19T10:31:27.017Z,65
2016-06-19T10:32:27.004Z,70
2016-06-19T10:33:26.414Z,75
2016-06-19T10:34:26.433Z,80
2016-06-19T10:35:27.030Z,85
2016-06-19T10:36:27.018Z,90
2016-06-19T10:37:27.021Z,90
2016-06-19T10:38:26.415Z,90
2016-06-19T10:39:27.013Z,90
2016-06-19T10:40:25.828Z,90
2016-06-19T10:41:27.035Z,85
2016-06-19T10:42:27.039Z,85
2016-06-19T10:43:27.042Z,85
2016-06-19T10:44:27.046Z,85
2016-06-19T10:45:26.439Z,80
2016-06-19T10:46:27.052Z,80
2016-06-19T10:47:27.040Z,75
2016-06-19T10:48:26.450Z,75
2016-06-19T10:49:26.454Z,75
2016-06-19T10:50:27.066Z,70
2016-06-19T10:51:27.070Z,70
2016-06-19T10:52:26.463Z,70
2016-06-19T10:53:27.093Z,70
2016-06-19T10:54:27.080Z,70
2016-06-19T10:55:27.099Z,75
2016-06-19T10:56:26.492Z,75
2016-06-19T10:57:26.481Z,75
2016-06-19T10:58:27.094Z,75
2016-06-19T10:59:26.472Z,75
2016-06-19T11:00:27.086Z,75
2016-06-19T11:01:26.512Z,75
2016-06-19T11:02:27.096Z,75
2016-06-19T11:03:26.507Z,75
2016-06-19T11:04:27.121Z,80
2016-06-19T11:05:27.141Z,80
2016-06-19T11:06:27.114Z,80
2016-06-19T11:07:27.133Z,80
2016-06-19T11:08:27.122Z,80
2016-06-19T11:09:27.126Z,80
2016-06-19T11:10:25.926Z,80
2016-06-19T11:11:27.134Z,80
2016-06-19T11:12:26.528Z,80
2016-06-19T11:13:27.172Z,80
2016-06-19T11:14:27.146Z,80
2016-06-19T11:15:27.180Z,80
2016-06-19T11:16:27.167Z,80
2016-06-19T11:17:27.156Z,85
2016-06-19T11:18:26.565Z,85
2016-06-19T11:19:26.553Z,85
2016-06-19T11:20:26.556Z,90
2016-06-19T11:21:27.170Z,90
2016-06-19T11:22:27.204Z,90
2016-06-19T11:23:26.567Z,90
2016-06-19T11:24:27.195Z,90
2016-06-19T11:25:27.183Z,95
2016-06-19T11:26:27.187Z,95
2016-06-19T11:27:27.206Z,95
2016-06-19T11:28:27.194Z,95
2016-06-19T11:29:26.587Z,90
2016-06-19T11:30:26.591Z,85
2016-06-19T11:31:26.610Z,85
2016-06-19T11:32:27.192Z,85
2016-06-19T11:33:27.211Z,85
2016-06-19T11:34:27.214Z,85
2016-06-19T11:35:27.202Z,80
2016-06-19T11:36:26.017Z,70
2016-06-19T11:37:26.615Z,65
2016-06-19T11:38:27.228Z,70
2016-06-19T11:39:27.232Z,70
2016-06-19T11:40:26.641Z,65
2016-06-19T11:41:26.019Z,65
2016-06-19T11:42:27.227Z,65
2016-06-19T11:43:27.277Z,70
2016-06-19T11:44:27.249Z,70
2016-06-19T11:45:27.253Z,70
2016-06-19T11:46:27.240Z,65
2016-06-19T11:47:26.681Z,65
2016-06-19T11:48:27.247Z,65
2016-06-19T11:49:27.250Z,60
2016-06-19T11:50:27.254Z,60
2016-06-19T11:51:27.273Z,65
2016-06-19T11:52:27.260Z,70
2016-06-19T11:53:27.281Z,80
2016-06-19T11:54:27.284Z,85
2016-06-19T11:55:27.272Z,90
2016-06-19T11:56:27.275Z,100
2016-06-19T11:57:27.263Z,110
2016-06-19T11:58:27.281Z,120
2016-06-19T11:59:26.676Z,120
2016-06-19T12:00:26.680Z,120
2016-06-19T12:01:26.667Z,120
2016-06-19T12:02:26.686Z,120
2016-06-19T12:03:26.690Z,115
2016-06-19T12:04:27.303Z,115
2016-06-19T12:05:26.697Z,115
2016-06-19T12:06:26.668Z,115
2016-06-19T12:07:27.297Z,120
2016-06-19T12:08:27.317Z,130
2016-06-19T12:09:27.319Z,135
2016-06-19T12:10:27.323Z,145
2016-06-19T12:11:26.717Z,155
2016-06-19T12:12:26.722Z,165
2016-06-19T12:13:26.709Z,170
2016-06-19T12:14:26.728Z,175
2016-06-19T12:15:27.340Z,170
2016-06-19T12:16:26.719Z,165
2016-06-19T12:17:27.363Z,160
2016-06-19T12:18:26.726Z,155
2016-06-19T12:19:26.729Z,155
2016-06-19T12:20:27.342Z,155
2016-06-19T12:21:27.346Z,150
2016-06-19T12:22:26.739Z,145
2016-06-19T12:23:27.368Z,140
2016-06-19T12:24:27.356Z,135
2016-06-19T12:25:27.344Z,125
2016-06-19T12:26:26.801Z,115
2016-06-19T12:27:27.366Z,105
2016-06-19T12:28:27.385Z,95
2016-06-19T12:29:27.373Z,90
2016-06-19T12:30:27.362Z,85
2016-06-19T12:31:26.754Z,85
2016-06-19T12:32:27.383Z,80
2016-06-19T12:33:27.387Z,75
2016-06-19T12:34:26.781Z,75
2016-06-19T12:35:27.393Z,75
2016-06-19T12:36:27.397Z,75
2016-06-19T12:37:27.416Z,75
2016-06-19T12:38:26.171Z,75
2016-06-19T12:39:27.407Z,75
2016-06-19T12:40:27.396Z,80
2016-06-19T12:41:27.400Z,80
2016-06-19T12:42:27.418Z,80
2016-06-19T12:43:27.407Z,80
2016-06-19T12:44:27.425Z,85
2016-06-19T12:45:27.414Z,85
2016-06-19T12:46:26.197Z,90
2016-06-19T12:47:27.420Z,90
2016-06-19T12:48:27.455Z,95
2016-06-19T12:49:27.442Z,100
2016-06-19T12:50:26.836Z,100
2016-06-19T12:51:27.418Z,100
2016-06-19T12:52:27.437Z,105
2016-06-19T12:53:27.456Z,105
2016-06-19T12:54:27.445Z,105
2016-06-19T12:55:27.448Z,105
2016-06-19T12:56:27.452Z,105
2016-06-19T12:57:27.455Z,105
2016-06-19T12:58:27.459Z,105
2016-06-19T12:59:27.461Z,105
2016-06-19T13:00:26.855Z,105
2016-06-19T13:01:27.453Z,105
2016-06-19T13:02:27.472Z,105
2016-06-19T13:03:26.881Z,105
2016-06-19T13:04:27.479Z,105
2016-06-19T13:05:27.467Z,105
2016-06-19T13:06:27.486Z,105
2016-06-19T13:07:27.489Z,105
2016-06-19T13:08:27.477Z,105
2016-06-19T13:09:27.464Z,110
2016-06-19T13:10:27.500Z,110
2016-06-19T13:11:27.487Z,110
2016-06-19T13:12:27.490Z,115
2016-06-19T13:13:27.510Z,115
2016-06-19T13:14:27.514Z,120
2016-06-19T13:15:27.517Z,120
2016-06-19T13:16:27.505Z,120
2016-06-19T13:17:27.558Z,120
2016-06-19T13:18:27.565Z,115
2016-06-19T13:19:27.556Z,115
2016-06-19T13:20:27.547Z,115
2016-06-19T13:21:27.538Z,115
2016-06-19T13:22:27.542Z,115
2016-06-19T13:23:26.937Z,110
2016-06-19T13:24:27.551Z,105
2016-06-19T13:25:26.337Z,100
2016-06-19T13:26:27.577Z,100
2016-06-19T13:27:27.580Z,95
2016-06-19T13:28:27.552Z,90
2016-06-19T13:29:27.572Z,85
2016-06-19T13:30:26.966Z,85
2016-06-19T13:31:27.563Z,85
2016-06-19T13:32:27.614Z,85
2016-06-19T13:33:27.571Z,85
2016-06-19T13:34:27.575Z,85
2016-06-19T13:35:27.579Z,85
2016-06-19T13:36:27.599Z,85
2016-06-19T13:37:26.977Z,85
2016-06-19T13:38:27.606Z,85
2016-06-19T13:39:27.609Z,90
2016-06-19T13:40:27.582Z,90
2016-06-19T13:41:27.600Z,95
2016-06-19T13:42:27.620Z,100
2016-06-19T13:43:27.623Z,105
2016-06-19T13:44:27.657Z,105
2016-06-19T13:45:26.411Z,105
2016-06-19T13:46:27.618Z,105
2016-06-19T13:47:27.637Z,100
2016-06-19T13:48:26.421Z,100
2016-06-19T13:49:27.628Z,95
2016-06-19T13:50:27.631Z,90
2016-06-19T13:51:27.651Z,90
2016-06-19T13:52:27.029Z,85
2016-06-19T13:53:27.658Z,85
2016-06-19T13:54:27.645Z,85
2016-06-19T13:55:26.446Z,85
2016-06-19T13:56:27.043Z,85
2016-06-19T13:57:27.656Z,85
2016-06-19T13:58:27.659Z,85
2016-06-19T13:59:27.038Z,80
2016-06-19T14:00:27.665Z,80
2016-06-19T14:01:27.670Z,80
2016-06-19T14:02:27.673Z,80
2016-06-19T14:03:27.662Z,80
2016-06-19T14:04:27.680Z,80
2016-06-19T14:05:27.699Z,80
2016-06-19T14:06:27.672Z,80
2016-06-19T14:07:27.675Z,80
2016-06-19T14:08:27.678Z,75
2016-06-19T14:09:27.072Z,75
2016-06-19T14:10:27.686Z,75
2016-06-19T14:11:27.720Z,70
2016-06-19T14:12:27.082Z,70
2016-06-19T14:13:27.696Z,70
2016-06-19T14:14:27.090Z,70
2016-06-19T14:15:27.718Z,70